Time;durP1;ratioP1;P1;durP2;ratioP2;P2;SDS_P1;SDS_P2;PMS_P1;PMS_P2;Temp;Humidity;BMP_temperature;BMP_pressure;BME280_temperature;BME280_humidity;BME280_pressure;Samples;Min_cycle;Max_cycle;Signal;HPM_P1;HPM_P2
2024/04/26 00:01:06;;;;;;;;;11.00;5.75;;;;;12.36;45.71;100067.25;5310771;26;44587;-76
2024/04/26 00:03:33;;;;;;;;;7.75;7.75;;;;;12.33;44.63;100057.03;5315100;26;44428;-77
2024/04/26 00:05:58;;;;;;;;;9.75;8.00;;;;;12.31;45.56;100056.44;5314965;26;43799;-77
2024/04/26 00:08:24;;;;;;;;;9.00;6.25;;;;;12.30;45.48;100058.28;5314910;26;44748;-77
2024/04/26 00:10:49;;;;;;;;;9.50;8.00;;;;;12.25;45.74;100050.94;5325612;26;63456;-77
2024/04/26 00:13:14;;;;;;;;;6.25;6.00;;;;;12.25;44.75;100052.81;5323135;26;64349;-77
2024/04/26 00:15:40;;;;;;;;;9.25;7.75;;;;;12.23;45.53;100060.16;5283615;26;67565;-76
2024/04/26 00:18:06;;;;;;;;;5.25;4.75;;;;;12.19;46.14;100049.13;5315204;26;69160;-76
2024/04/26 00:20:32;;;;;;;;;10.50;6.25;;;;;12.16;45.33;100046.91;5316543;26;44274;-77
2024/04/26 00:22:57;;;;;;;;;5.25;5.25;;;;;12.16;46.06;100048.75;5315680;26;44233;-77
2024/04/26 00:25:22;;;;;;;;;9.50;8.00;;;;;12.15;45.05;100047.13;5315731;26;65575;-77
2024/04/26 00:27:48;;;;;;;;;10.25;6.25;;;;;12.10;45.26;100037.91;5323586;26;57827;-77
2024/04/26 00:30:13;;;;;;;;;8.00;6.25;;;;;12.13;46.78;100047.31;5318310;26;44583;-77
2024/04/26 00:32:39;;;;;;;;;7.25;5.25;;;;;12.11;46.88;100044.06;5323230;26;43997;-77
2024/04/26 00:35:04;;;;;;;;;13.75;8.00;;;;;12.08;45.41;100037.31;5320400;26;44022;-77
2024/04/26 00:37:29;;;;;;;;;11.50;8.00;;;;;12.07;45.92;100038.34;5319615;26;44958;-77
2024/04/26 00:39:55;;;;;;;;;8.00;7.75;;;;;12.04;45.93;100037.97;5314734;26;44045;-77
2024/04/26 00:42:20;;;;;;;;;7.25;7.00;;;;;12.03;45.67;100039.00;5317123;26;44005;-77
2024/04/26 00:44:45;;;;;;;;;8.00;6.00;;;;;12.02;47.24;100029.41;5325743;26;44078;-76
2024/04/26 00:47:11;;;;;;;;;9.50;7.75;;;;;11.98;47.31;100031.63;5316801;26;44265;-76
2024/04/26 00:49:36;;;;;;;;;8.75;8.00;;;;;11.96;46.91;100026.53;5295481;26;67665;-77
2024/04/26 00:52:02;;;;;;;;;7.25;5.25;;;;;11.98;46.39;100022.84;5277483;26;43962;-77
2024/04/26 00:54:29;;;;;;;;;9.00;8.00;;;;;11.96;46.04;100028.34;5326904;26;44141;-76
2024/04/26 00:56:59;;;;;;;;;9.00;6.50;;;;;11.94;47.04;100023.25;5286808;26;51498;-76
2024/04/26 00:59:25;;;;;;;;;7.25;4.00;;;;;11.91;47.29;100028.16;5329108;26;44044;-77
2024/04/26 01:01:51;;;;;;;;;10.75;8.00;;;;;11.92;46.53;100027.16;5279963;26;44087;-76
2024/04/26 01:04:17;;;;;;;;;9.00;9.00;;;;;11.88;46.47;100025.94;5283003;26;44053;-77
2024/04/26 01:06:45;;;;;;;;;10.75;9.00;;;;;11.87;47.26;100026.97;5321395;26;56243;-76
2024/04/26 01:09:11;;;;;;;;;8.00;5.75;;;;;11.81;47.74;100026.78;5319172;26;44577;-76
2024/04/26 01:11:36;;;;;;;;;5.00;5.00;;;;;11.80;47.38;100029.66;5311162;26;44688;-76
2024/04/26 01:14:02;;;;;;;;;11.25;8.00;;;;;11.75;47.76;100032.94;5275467;26;44104;-76
2024/04/26 01:16:27;;;;;;;;;9.75;8.50;;;;;11.71;46.87;100025.56;5301254;26;44125;-77
2024/04/26 01:18:52;;;;;;;;;12.50;9.00;;;;;11.69;46.99;100027.63;5313698;26;43946;-76
2024/04/26 01:21:18;;;;;;;;;6.50;6.00;;;;;11.63;48.55;100024.00;5311867;26;55097;-76
2024/04/26 01:23:43;;;;;;;;;7.75;7.00;;;;;11.59;47.41;100025.44;5288055;26;66562;-77
2024/04/26 01:26:09;;;;;;;;;8.50;6.25;;;;;11.52;48.29;100017.47;5272495;26;72600;-76
2024/04/26 01:28:35;;;;;;;;;9.00;8.00;;;;;11.48;47.75;100021.56;5316607;26;44714;-77
2024/04/26 01:31:00;;;;;;;;;10.00;6.25;;;;;11.46;47.74;100020.97;5316135;26;44391;-76
2024/04/26 01:33:25;;;;;;;;;13.75;8.25;;;;;11.42;48.35;100025.06;5315355;26;68393;-76
2024/04/26 01:35:51;;;;;;;;;8.50;4.00;;;;;11.37;49.41;100026.50;5255747;26;70721;-76
2024/04/26 01:38:17;;;;;;;;;10.00;9.00;;;;;11.33;47.96;100017.31;5317901;26;43873;-76
2024/04/26 01:40:42;;;;;;;;;9.50;7.50;;;;;11.29;49.14;100028.53;5288948;26;44053;-76
2024/04/26 01:43:07;;;;;;;;;10.00;8.50;;;;;11.26;48.47;100027.13;5287329;26;60783;-77
2024/04/26 01:45:33;;;;;;;;;10.00;8.75;;;;;11.22;49.38;100025.91;5319929;26;46062;-77
2024/04/26 01:47:58;;;;;;;;;8.75;6.50;;;;;11.18;49.09;100027.34;5323082;26;44069;-76
2024/04/26 01:50:24;;;;;;;;;10.25;8.50;;;;;11.15;49.28;100019.78;5323044;26;44057;-76
2024/04/26 01:52:50;;;;;;;;;9.00;7.50;;;;;11.15;48.95;100025.09;5321193;26;67488;-76
2024/04/26 01:55:15;;;;;;;;;11.25;7.50;;;;;11.12;50.10;100025.50;5327590;26;45788;-76
2024/04/26 01:57:41;;;;;;;;;7.50;5.00;;;;;11.07;48.87;100020.81;5275748;26;44470;-77
2024/04/26 02:00:08;;;;;;;;;9.00;8.00;;;;;11.08;49.61;100022.44;5302279;26;44293;-76
2024/04/26 02:02:33;;;;;;;;;7.50;6.00;;;;;11.03;50.02;100025.72;5289676;26;43910;-76
2024/04/26 02:04:58;;;;;;;;;9.75;7.00;;;;;11.00;49.66;100018.19;5301095;26;55262;-76
2024/04/26 02:07:24;;;;;;;;;10.25;7.75;;;;;11.02;50.09;100028.56;5324197;26;66477;-76
2024/04/26 02:09:49;;;;;;;;;6.00;6.00;;;;;11.00;49.64;100022.66;5284676;26;44030;-77
2024/04/26 02:12:15;;;;;;;;;8.25;7.25;;;;;10.97;49.81;100018.56;5277360;26;63763;-75
2024/04/26 02:14:41;;;;;;;;;9.50;9.00;;;;;10.99;49.41;100028.97;5312735;26;45192;-76
2024/04/26 02:17:06;;;;;;;;;16.25;10.00;;;;;10.94;50.17;100027.75;5313511;26;44109;-76
2024/04/26 02:19:32;;;;;;;;;15.00;13.50;;;;;10.93;50.28;100018.16;5313317;26;63470;-76
2024/04/26 02:21:57;;;;;;;;;23.50;18.25;;;;;10.94;51.21;100025.09;5317651;26;63002;-76
2024/04/26 02:24:22;;;;;;;;;16.75;14.00;;;;;10.90;49.83;100026.53;5318638;26;66482;-76
2024/04/26 02:26:48;;;;;;;;;14.00;10.00;;;;;10.90;49.86;100026.53;5285825;26;68221;-76
2024/04/26 02:29:13;;;;;;;;;14.50;11.50;;;;;10.88;50.94;100022.44;5321609;26;58446;-76
2024/04/26 02:31:39;;;;;;;;;14.25;10.25;;;;;10.86;49.91;100027.13;5318377;26;62638;-75
2024/04/26 02:34:05;;;;;;;;;7.00;7.00;;;;;10.84;50.70;100027.34;5321204;26;44882;-76
2024/04/26 02:36:30;;;;;;;;;11.00;8.00;;;;;10.76;50.89;100015.09;5331725;26;43939;-76
2024/04/26 02:38:56;;;;;;;;;10.25;8.75;;;;;10.82;50.80;100026.72;5320033;26;63586;-76
2024/04/26 02:41:23;;;;;;;;;8.00;8.00;;;;;10.82;50.34;100026.72;5321332;26;44072;-76
2024/04/26 02:43:49;;;;;;;;;9.50;9.25;;;;;10.77;50.50;100021.22;5317559;26;44359;-76
2024/04/26 02:46:14;;;;;;;;;11.25;9.00;;;;;10.75;51.14;100015.31;5317862;26;54393;-76
2024/04/26 02:48:40;;;;;;;;;10.50;7.25;;;;;10.73;50.84;100023.44;5320338;26;43997;-76
2024/04/26 02:51:11;;;;;;;;;9.75;7.50;;;;;10.71;51.54;100025.50;5319763;26;44455;-76
2024/04/26 02:53:41;;;;;;;;;11.25;9.00;;;;;10.65;51.74;100010.41;5319260;26;44052;-76
2024/04/26 02:56:07;;;;;;;;;8.50;8.25;;;;;10.63;51.26;100017.75;5326346;26;43922;-76
2024/04/26 02:58:33;;;;;;;;;11.50;8.00;;;;;10.59;51.40;100021.81;5326021;26;44044;-75
2024/04/26 03:00:58;;;;;;;;;7.00;7.00;;;;;10.57;52.28;100015.91;5297565;26;44108;-77
2024/04/26 03:03:23;;;;;;;;;10.00;7.25;;;;;10.55;52.30;100015.28;5275414;26;68495;-76
2024/04/26 03:05:49;;;;;;;;;11.00;7.50;;;;;10.47;51.88;100009.16;5299419;26;67241;-76
2024/04/26 03:08:14;;;;;;;;;9.00;7.75;;;;;10.44;51.43;100006.09;5306348;26;52784;-76
2024/04/26 03:10:40;;;;;;;;;12.25;8.75;;;;;10.44;51.23;100017.50;5320725;26;43977;-76
2024/04/26 03:13:06;;;;;;;;;10.50;9.00;;;;;10.38;52.88;100005.03;5325356;26;44189;-76
2024/04/26 03:15:31;;;;;;;;;12.50;8.75;;;;;10.41;52.02;100014.44;5331114;26;44531;-76
2024/04/26 03:17:57;;;;;;;;;13.25;9.00;;;;;10.39;52.45;100022.56;5338023;26;44387;-77
2024/04/26 03:20:23;;;;;;;;;11.75;7.00;;;;;10.35;52.39;100022.13;5327542;26;68693;-76
2024/04/26 03:22:49;;;;;;;;;12.00;7.50;;;;;10.33;52.30;100015.44;5339802;26;44771;-76
2024/04/26 03:25:17;;;;;;;;;12.00;8.25;;;;;10.34;52.08;100028.47;5295408;26;64865;-76
2024/04/26 03:27:42;;;;;;;;;9.25;8.00;;;;;10.27;52.40;100019.69;5300903;26;43967;-77
2024/04/26 03:30:08;;;;;;;;;6.50;6.25;;;;;10.28;52.00;100018.66;5286504;26;69843;-77
2024/04/26 03:32:33;;;;;;;;;12.75;8.75;;;;;10.27;52.83;100024.97;5294279;26;45826;-77
2024/04/26 03:34:58;;;;;;;;;9.00;8.00;;;;;10.25;52.37;100028.84;5332639;26;44012;-76
2024/04/26 03:37:24;;;;;;;;;11.75;8.00;;;;;10.24;53.17;100022.72;5317471;26;58350;-76
2024/04/26 03:39:49;;;;;;;;;11.25;9.00;;;;;10.20;53.10;100006.41;5321306;26;44214;-77
2024/04/26 03:42:15;;;;;;;;;10.25;8.25;;;;;10.18;52.27;100011.09;5319130;26;70226;-77
2024/04/26 03:44:40;;;;;;;;;9.75;4.50;;;;;10.15;52.89;100016.78;5324904;26;44117;-77
2024/04/26 03:47:05;;;;;;;;;7.75;7.75;;;;;10.11;52.42;100014.75;5323135;26;44085;-77
2024/04/26 03:49:31;;;;;;;;;12.00;7.50;;;;;10.11;53.12;100022.69;5326452;26;64682;-77
2024/04/26 03:51:56;;;;;;;;;10.25;9.00;;;;;10.09;52.14;100019.41;5292612;26;44796;-77
2024/04/26 03:54:21;;;;;;;;;12.75;8.50;;;;;10.02;52.88;100014.09;5298290;26;44063;-77
2024/04/26 03:56:47;;;;;;;;;12.75;11.00;;;;;10.01;53.31;100013.28;5331286;26;61146;-76
2024/04/26 03:59:12;;;;;;;;;12.00;8.00;;;;;9.98;52.68;100016.34;5292639;26;67378;-77
2024/04/26 04:01:38;;;;;;;;;8.50;8.00;;;;;9.98;52.46;100013.69;5303406;26;44774;-77
2024/04/26 04:04:03;;;;;;;;;12.75;8.00;;;;;9.97;53.24;100014.69;5330370;26;44064;-76
2024/04/26 04:06:29;;;;;;;;;12.00;9.75;;;;;9.92;52.92;100011.84;5328375;26;44159;-77
2024/04/26 04:08:54;;;;;;;;;12.25;9.50;;;;;9.92;52.97;100020.59;5319183;26;67614;-76
2024/04/26 04:11:19;;;;;;;;;12.00;11.00;;;;;9.88;53.68;100014.03;5321160;26;68791;-76
2024/04/26 04:13:46;;;;;;;;;15.00;11.25;;;;;9.87;53.04;100011.59;5333762;26;43807;-76
2024/04/26 04:16:12;;;;;;;;;11.75;8.75;;;;;9.82;53.74;100009.53;5333350;26;44030;-76
2024/04/26 04:18:37;;;;;;;;;12.25;11.00;;;;;9.78;53.83;100009.09;5330304;26;44051;-76
2024/04/26 04:21:02;;;;;;;;;12.00;8.00;;;;;9.80;53.36;100016.03;5304998;26;68948;-76
2024/04/26 04:23:28;;;;;;;;;13.00;11.75;;;;;9.77;53.70;100015.41;5327412;26;44537;-76
2024/04/26 04:25:53;;;;;;;;;11.00;9.75;;;;;9.76;53.37;100023.56;5339401;26;44090;-76
2024/04/26 04:28:18;;;;;;;;;12.25;8.50;;;;;9.70;53.67;100013.75;5332059;26;44115;-76
2024/04/26 04:30:44;;;;;;;;;9.50;8.00;;;;;9.68;53.87;100013.94;5336759;26;68588;-77
2024/04/26 04:33:10;;;;;;;;;12.25;11.00;;;;;9.66;53.92;100017.81;5271867;26;64148;-76
2024/04/26 04:35:36;;;;;;;;;17.25;11.75;;;;;9.63;53.43;100013.72;5314195;26;44021;-76
2024/04/26 04:38:02;;;;;;;;;10.25;9.25;;;;;9.62;53.69;100009.44;5312715;26;64537;-77
2024/04/26 04:40:28;;;;;;;;;13.50;10.25;;;;;9.61;54.45;100018.38;5315586;26;44780;-77
2024/04/26 04:42:55;;;;;;;;;13.50;8.00;;;;;9.59;54.62;100017.78;5314633;26;44042;-77
2024/04/26 04:45:20;;;;;;;;;18.75;11.50;;;;;9.60;54.71;100020.25;5315891;26;43954;-77
2024/04/26 04:47:48;;;;;;;;;15.00;11.50;;;;;9.53;54.24;100011.44;5316434;26;44032;-76
2024/04/26 04:50:13;;;;;;;;;11.25;9.25;;;;;9.59;54.15;100021.25;5315092;26;44834;-77
2024/04/26 04:52:39;;;;;;;;;10.25;6.25;;;;;9.56;55.03;100021.63;5318057;26;44264;-76
2024/04/26 04:55:05;;;;;;;;;11.75;11.50;;;;;9.55;54.71;100022.66;5319441;26;43878;-77
2024/04/26 04:57:30;;;;;;;;;16.75;12.25;;;;;9.55;54.90;100020.00;5319421;26;44033;-76
2024/04/26 04:59:55;;;;;;;;;11.50;11.00;;;;;9.56;54.90;100023.47;5291062;26;45102;-76
2024/04/26 05:02:21;;;;;;;;;12.75;12.00;;;;;9.52;55.10;100016.91;5319954;26;44029;-77
2024/04/26 05:04:47;;;;;;;;;16.25;12.00;;;;;9.55;55.15;100020.00;5263531;26;44146;-77
2024/04/26 05:07:12;;;;;;;;;13.00;12.00;;;;;9.47;55.04;100009.59;5315753;26;66943;-77
2024/04/26 05:09:37;;;;;;;;;14.00;10.75;;;;;9.55;54.92;100025.31;5284833;26;64684;-77
2024/04/26 05:12:05;;;;;;;;;18.00;12.00;;;;;9.51;55.02;100020.59;5316317;26;68491;-76
2024/04/26 05:14:30;;;;;;;;;16.25;13.00;;;;;9.59;55.69;100038.94;5319529;26;44193;-77
2024/04/26 05:16:55;;;;;;;;;15.00;12.00;;;;;9.60;55.28;100040.56;5327994;26;43937;-77
2024/04/26 05:19:21;;;;;;;;;13.50;12.50;;;;;9.62;55.74;100044.69;5327180;26;44079;-76
2024/04/26 05:21:46;;;;;;;;;21.75;13.75;;;;;9.65;56.02;100034.72;5333318;26;43926;-77
2024/04/26 05:24:11;;;;;;;;;17.75;12.75;;;;;9.67;55.32;100044.06;5336838;26;57531;-76
2024/04/26 05:26:37;;;;;;;;;21.25;13.50;;;;;9.70;55.69;100048.19;5339335;26;51552;-76
2024/04/26 05:29:02;;;;;;;;;15.50;13.75;;;;;9.73;55.56;100053.88;5331541;26;67771;-76
2024/04/26 05:31:28;;;;;;;;;23.00;16.50;;;;;9.70;55.84;100045.53;5313555;26;44080;-77
2024/04/26 05:33:53;;;;;;;;;14.00;13.00;;;;;9.76;55.73;100048.19;5313479;26;44381;-75
2024/04/26 05:36:19;;;;;;;;;15.75;14.50;;;;;9.81;55.81;100055.56;5310428;26;68467;-76
2024/04/26 05:38:44;;;;;;;;;13.25;12.00;;;;;9.81;56.73;100052.09;5283058;26;69962;-76
2024/04/26 05:41:13;;;;;;;;;18.75;15.50;;;;;9.83;56.51;100042.13;5317175;26;67443;-76
2024/04/26 05:43:38;;;;;;;;;22.75;16.25;;;;;9.87;56.19;100053.97;5317660;26;44038;-76
2024/04/26 05:46:08;;;;;;;;;15.50;14.00;;;;;9.87;56.45;100052.13;5323407;26;44500;-76
2024/04/26 05:48:35;;;;;;;;;18.75;15.75;;;;;9.92;55.57;100060.28;5318058;26;44949;-76
2024/04/26 05:51:00;;;;;;;;;16.00;14.75;;;;;9.95;55.69;100056.44;5318312;26;43934;-76
2024/04/26 05:53:25;;;;;;;;;20.25;15.50;;;;;10.01;55.80;100062.78;5324345;26;44255;-76
2024/04/26 05:55:51;;;;;;;;;18.75;15.00;;;;;10.03;55.74;100052.81;5311769;26;45614;-76
2024/04/26 05:58:16;;;;;;;;;14.25;13.75;;;;;10.07;55.93;100054.88;5314682;26;69231;-76
2024/04/26 06:00:41;;;;;;;;;19.25;14.75;;;;;10.11;55.31;100057.13;5283842;26;67506;-75
2024/04/26 06:03:07;;;;;;;;;14.75;13.00;;;;;10.16;55.63;100057.34;5253258;26;44416;-76
2024/04/26 06:05:33;;;;;;;;;17.50;13.75;;;;;10.24;55.18;100054.53;5312199;26;44279;-76
2024/04/26 06:07:58;;;;;;;;;16.75;12.00;;;;;10.32;55.77;100064.94;5316223;26;43957;-78
2024/04/26 06:10:26;;;;;;;;;17.50;14.75;;;;;10.39;55.01;100066.78;5277000;26;57458;-78
2024/04/26 06:12:52;;;;;;;;;20.50;13.25;;;;;10.42;55.37;100061.94;5311925;26;44103;-78
2024/04/26 06:15:17;;;;;;;;;15.75;15.00;;;;;10.51;54.88;100067.88;5313767;26;44553;-78
2024/04/26 06:17:42;;;;;;;;;20.75;12.50;;;;;10.55;55.04;100052.38;5312985;26;71560;-74
2024/04/26 06:20:08;;;;;;;;;18.75;13.75;;;;;10.64;55.65;100061.78;5317728;26;64347;-76
2024/04/26 06:22:33;;;;;;;;;22.25;17.50;;;;;10.68;54.91;100057.72;5322835;26;44113;-75
2024/04/26 06:24:58;;;;;;;;;15.75;14.00;;;;;10.75;54.63;100061.19;5326411;26;65875;-77
2024/04/26 06:27:24;;;;;;;;;19.75;14.50;;;;;10.83;54.99;100060.19;5300311;26;67083;-74
2024/04/26 06:29:49;;;;;;;;;17.75;14.75;;;;;10.90;54.98;100068.13;5335903;26;65659;-76
2024/04/26 06:32:15;;;;;;;;;33.00;27.00;;;;;10.97;54.58;100066.28;5286285;26;64434;-73
2024/04/26 06:34:40;;;;;;;;;26.25;21.50;;;;;11.04;53.35;100068.97;5336251;26;44130;-74
2024/04/26 06:37:07;;;;;;;;;18.25;14.25;;;;;11.11;53.95;100071.63;5286900;26;47444;-74
2024/04/26 06:39:34;;;;;;;;;17.75;14.50;;;;;11.16;54.04;100067.31;5336792;26;44647;-75
2024/04/26 06:41:59;;;;;;;;;15.25;14.00;;;;;11.23;54.36;100076.09;5329709;26;44075;-74
2024/04/26 06:44:24;;;;;;;;;23.75;16.00;;;;;11.28;53.15;100072.00;5333753;26;68426;-78
2024/04/26 06:46:50;;;;;;;;;19.50;15.00;;;;;11.37;53.40;100074.25;5335334;26;66740;-75
2024/04/26 06:49:15;;;;;;;;;19.75;16.00;;;;;11.41;53.62;100069.38;5322971;26;66233;-79
2024/04/26 06:51:41;;;;;;;;;21.75;15.50;;;;;11.50;52.60;100077.91;5325183;26;44352;-72
2024/04/26 06:54:06;;;;;;;;;21.50;17.25;;;;;11.55;53.71;100079.97;5324459;26;52846;-78
2024/04/26 06:56:31;;;;;;;;;21.00;16.50;;;;;11.58;53.46;100071.59;5322793;26;58354;-75
2024/04/26 06:58:57;;;;;;;;;20.25;17.75;;;;;11.60;52.57;100078.31;5323986;26;43792;-77
2024/04/26 07:01:22;;;;;;;;;20.25;17.50;;;;;11.67;53.40;100083.63;5325264;26;63922;-76
2024/04/26 07:03:47;;;;;;;;;21.50;18.75;;;;;11.71;52.57;100082.16;5294183;26;43950;-74
2024/04/26 07:06:13;;;;;;;;;20.50;17.00;;;;;11.76;52.44;100084.22;5327906;26;70623;-74
2024/04/26 07:08:38;;;;;;;;;21.50;14.25;;;;;11.81;51.75;100089.72;5325990;26;59362;-70
2024/04/26 07:11:06;;;;;;;;;23.50;18.00;;;;;11.84;52.37;100084.00;5289699;26;64703;-78
2024/04/26 07:13:31;;;;;;;;;25.50;16.00;;;;;11.88;51.41;100087.03;5322658;26;43792;-79
2024/04/26 07:15:56;;;;;;;;;22.50;18.50;;;;;11.92;51.55;100082.94;5321493;26;69951;-76
2024/04/26 07:18:22;;;;;;;;;25.00;19.25;;;;;11.98;52.69;100083.94;5320952;26;66751;-78
2024/04/26 07:20:47;;;;;;;;;19.00;16.50;;;;;11.99;52.22;100075.75;5280536;26;44520;-75
2024/04/26 07:23:13;;;;;;;;;22.75;21.50;;;;;12.06;52.52;100089.84;5293330;26;65152;-76
2024/04/26 07:25:38;;;;;;;;;19.75;15.25;;;;;12.12;51.83;100092.69;5334102;26;44230;-76
2024/04/26 07:28:05;;;;;;;;;23.75;15.00;;;;;12.14;51.66;100091.47;5322582;26;63333;-75
2024/04/26 07:30:30;;;;;;;;;25.75;19.75;;;;;12.20;52.35;100089.81;5299106;26;43501;-79
2024/04/26 07:32:56;;;;;;;;;20.25;17.50;;;;;12.25;52.18;100087.34;5332770;26;43736;-80
2024/04/26 07:35:22;;;;;;;;;26.00;17.00;;;;;12.33;52.50;100094.25;5331874;26;43691;-75
2024/04/26 07:37:47;;;;;;;;;17.75;15.25;;;;;12.39;52.09;100096.88;5301774;26;64853;-79
2024/04/26 07:40:12;;;;;;;;;17.50;15.50;;;;;12.45;52.14;100092.53;5332237;26;59650;-78
2024/04/26 07:42:38;;;;;;;;;24.75;18.25;;;;;12.57;50.83;100092.69;5313851;26;43564;-78
2024/04/26 07:45:03;;;;;;;;;18.50;17.50;;;;;12.65;51.94;100092.44;5334014;26;57062;-76
2024/04/26 07:47:29;;;;;;;;;20.50;17.00;;;;;12.73;51.51;100091.38;5344154;26;43996;-78
2024/04/26 07:49:54;;;;;;;;;22.75;17.00;;;;;12.77;50.90;100087.25;5337695;26;44264;-79
2024/04/26 07:52:20;;;;;;;;;22.25;16.75;;;;;12.87;50.35;100084.09;5343664;26;44065;-77
2024/04/26 07:54:45;;;;;;;;;21.00;17.75;;;;;12.96;50.91;100082.00;5340404;26;65146;-77
2024/04/26 07:57:10;;;;;;;;;21.50;15.00;;;;;13.07;50.48;100085.84;5342801;26;65598;-78
2024/04/26 07:59:36;;;;;;;;;21.75;17.25;;;;;13.19;49.81;100089.41;5337427;26;43639;-80
2024/04/26 08:02:01;;;;;;;;;20.50;18.00;;;;;13.26;49.91;100087.50;5317646;26;43928;-82
2024/04/26 08:04:27;;;;;;;;;18.25;15.00;;;;;13.38;49.12;100090.28;5339054;26;66677;-79
2024/04/26 08:06:52;;;;;;;;;22.25;16.75;;;;;13.45;49.58;100084.91;5289866;26;51798;-76
2024/04/26 08:09:19;;;;;;;;;20.25;19.25;;;;;13.56;49.09;100084.19;5314813;26;43398;-77
2024/04/26 08:11:47;;;;;;;;;25.25;21.50;;;;;13.65;48.88;100087.38;5320099;26;43776;-77
2024/04/26 08:14:12;;;;;;;;;24.00;20.75;;;;;13.69;48.81;100077.91;5326336;26;44746;-81
2024/04/26 08:16:38;;;;;;;;;23.50;17.25;;;;;13.80;48.85;100086.19;5298714;26;43865;-82
2024/04/26 08:19:03;;;;;;;;;19.00;14.75;;;;;13.88;48.47;100085.09;5331696;26;59483;-79
2024/04/26 08:21:29;;;;;;;;;16.75;14.25;;;;;13.94;48.12;100087.69;5302129;26;60448;-80
2024/04/26 08:23:56;;;;;;;;;19.50;14.50;;;;;14.05;47.65;100083.47;5339385;26;62566;-80
2024/04/26 08:26:22;;;;;;;;;23.25;18.75;;;;;14.11;47.19;100082.56;5334455;26;44047;-78
2024/04/26 08:28:47;;;;;;;;;22.50;17.25;;;;;14.19;47.23;100093.97;5338010;26;44268;-81
2024/04/26 08:31:13;;;;;;;;;19.25;16.25;;;;;14.24;47.16;100086.09;5336669;26;43953;-76
2024/04/26 08:33:38;;;;;;;;;20.00;18.00;;;;;14.34;47.37;100091.72;5334357;26;44793;-80
2024/04/26 08:36:03;;;;;;;;;22.50;17.25;;;;;14.45;47.03;100087.47;5340103;26;44032;-81
2024/04/26 08:38:29;;;;;;;;;22.50;20.50;;;;;14.53;46.36;100078.34;5341711;26;44032;-77
2024/04/26 08:40:54;;;;;;;;;16.50;14.00;;;;;14.65;45.99;100078.38;5336781;26;63836;-75
2024/04/26 08:43:21;;;;;;;;;21.75;19.00;;;;;14.80;46.69;100086.00;5347487;26;44295;-77
2024/04/26 08:45:49;;;;;;;;;23.50;18.00;;;;;14.93;45.86;100091.13;5276273;26;44376;-74
2024/04/26 08:48:15;;;;;;;;;23.50;17.50;;;;;15.05;46.19;100098.34;5290451;26;43439;-78
2024/04/26 08:50:40;;;;;;;;;22.25;15.75;;;;;15.18;45.75;100091.97;5307194;26;43574;-74
2024/04/26 08:53:07;;;;;;;;;18.75;15.25;;;;;15.28;43.80;100084.22;5339078;26;44166;-75
2024/04/26 08:55:33;;;;;;;;;18.50;17.25;;;;;15.37;43.27;100090.03;5325727;26;44548;-75
2024/04/26 08:58:03;;;;;;;;;16.75;14.75;;;;;15.43;44.16;100087.22;5326776;26;43797;-77
2024/04/26 09:00:34;;;;;;;;;17.75;13.50;;;;;15.51;43.34;100086.06;5295756;26;43730;-78
2024/04/26 09:03:03;;;;;;;;;20.00;15.00;;;;;15.60;44.04;100090.00;5328586;26;45129;-77
2024/04/26 09:05:29;;;;;;;;;14.00;12.75;;;;;15.71;42.26;100093.72;5289311;26;44320;-79
2024/04/26 09:07:58;;;;;;;;;13.00;13.00;;;;;15.76;42.70;100098.34;5331332;26;44030;-76
2024/04/26 09:10:24;;;;;;;;;20.25;16.00;;;;;15.81;42.20;100090.44;5328324;26;43798;-78
2024/04/26 09:12:49;;;;;;;;;18.75;14.50;;;;;15.85;42.97;100099.63;5267597;26;45125;-79
2024/04/26 09:15:15;;;;;;;;;16.50;14.00;;;;;15.87;41.85;100088.69;5325214;26;43694;-77
2024/04/26 09:17:40;;;;;;;;;15.00;14.00;;;;;15.95;41.52;100090.25;5323821;26;63955;-76
2024/04/26 09:20:06;;;;;;;;;14.75;13.75;;;;;16.00;42.52;100091.13;5326078;26;69317;-75
2024/04/26 09:22:34;;;;;;;;;18.50;13.25;;;;;16.08;42.26;100089.97;5323941;26;44990;-77
2024/04/26 09:25:00;;;;;;;;;14.50;12.00;;;;;16.12;41.95;100090.28;5298977;26;43732;-77
2024/04/26 09:27:25;;;;;;;;;16.75;13.50;;;;;16.15;40.50;100085.28;5337639;26;43771;-79
2024/04/26 09:29:51;;;;;;;;;18.75;13.00;;;;;16.19;41.62;100088.28;5330588;26;64907;-78
2024/04/26 09:32:20;;;;;;;;;16.75;13.00;;;;;16.25;40.40;100092.69;5304607;26;65386;-79
2024/04/26 09:34:50;;;;;;;;;14.25;13.25;;;;;16.26;41.34;100093.50;5303871;26;44113;-75
2024/04/26 09:37:17;;;;;;;;;13.25;12.25;;;;;16.27;41.39;100097.81;5306080;26;43657;-77
2024/04/26 09:39:42;;;;;;;;;16.50;11.75;;;;;16.31;40.64;100090.94;5315592;26;68197;-76
2024/04/26 09:42:10;;;;;;;;;12.25;12.25;;;;;16.40;40.98;100091.38;5278125;26;45609;-76
2024/04/26 09:44:36;;;;;;;;;14.25;11.75;;;;;16.46;40.89;100090.41;5316791;26;43832;-77
2024/04/26 09:47:02;;;;;;;;;16.75;16.00;;;;;16.47;41.48;100082.13;5284912;26;43566;-79
2024/04/26 09:49:27;;;;;;;;;17.75;15.25;;;;;16.50;40.52;100096.09;5317794;26;43910;-79
2024/04/26 09:51:55;;;;;;;;;15.25;10.00;;;;;16.57;39.36;100100.25;5337659;26;45141;-77
2024/04/26 09:54:21;;;;;;;;;15.25;12.75;;;;;16.61;40.56;100097.91;5294553;26;44148;-78
2024/04/26 09:56:46;;;;;;;;;16.50;11.75;;;;;16.67;39.54;100099.63;5267199;26;43884;-76
2024/04/26 09:59:13;;;;;;;;;16.00;14.00;;;;;16.73;39.81;100098.66;5294889;26;57317;-78
2024/04/26 10:01:39;;;;;;;;;17.00;12.00;;;;;16.75;40.28;100088.53;5298604;26;43876;-76
2024/04/26 10:04:05;;;;;;;;;17.50;15.25;;;;;16.84;40.57;100096.97;5324393;26;61326;-78
2024/04/26 10:06:41;;;;;;;;;12.50;11.75;;;;;16.89;39.20;100094.38;5313108;26;43474;-79
2024/04/26 10:09:12;;;;;;;;;17.50;13.00;;;;;16.96;39.30;100090.72;5287570;26;44010;-78
2024/04/26 10:11:50;;;;;;;;;14.25;12.50;;;;;17.09;38.54;100098.50;5315951;26;44977;-78
2024/04/26 10:14:29;;;;;;;;;18.00;13.50;;;;;17.22;37.97;100094.66;5326247;26;44123;-80
2024/04/26 10:17:13;;;;;;;;;14.00;10.00;;;;;17.30;38.84;100093.44;5318346;26;43697;-79
2024/04/26 10:19:39;;;;;;;;;17.25;14.00;;;;;17.28;37.84;100098.22;5323931;26;43526;-77
2024/04/26 10:22:09;;;;;;;;;14.00;13.00;;;;;17.22;39.21;100093.84;5332218;26;45562;-79
2024/04/26 10:24:41;;;;;;;;;19.50;14.75;;;;;17.17;38.60;100098.06;5301438;26;44318;-81
2024/04/26 10:27:07;;;;;;;;;18.00;15.50;;;;;17.16;38.96;100087.59;5336724;26;43874;-80
2024/04/26 10:29:33;;;;;;;;;12.25;11.00;;;;;17.25;38.45;100093.38;5308334;26;43656;-78
2024/04/26 10:32:09;;;;;;;;;12.75;10.00;;;;;17.25;38.25;100090.69;5303174;26;71216;-79
2024/04/26 10:34:35;;;;;;;;;13.00;11.00;;;;;17.24;38.39;100100.56;5310307;26;44158;-81
2024/04/26 10:37:02;;;;;;;;;10.75;9.50;;;;;17.27;37.63;100094.72;5339602;26;43586;-75
2024/04/26 10:39:27;;;;;;;;;10.00;9.50;;;;;17.38;36.95;100093.03;5338471;26;44235;-77
2024/04/26 10:41:56;;;;;;;;;15.50;11.50;;;;;17.48;38.07;100087.81;5335034;26;43684;-78
2024/04/26 10:44:22;;;;;;;;;12.00;11.00;;;;;17.60;38.15;100090.41;5303340;26;44097;-81
2024/04/26 10:46:56;;;;;;;;;15.00;13.50;;;;;17.72;37.44;100079.53;5340938;26;44041;-75
2024/04/26 10:49:22;;;;;;;;;16.25;12.00;;;;;17.81;36.76;100076.47;5343024;26;43709;-77
2024/04/26 10:51:47;;;;;;;;;16.50;12.50;;;;;17.84;37.69;100086.69;5337876;26;68712;-78
2024/04/26 10:54:16;;;;;;;;;14.50;12.00;;;;;17.84;36.84;100089.38;5326610;26;43695;-75
2024/04/26 10:56:42;;;;;;;;;12.50;10.75;;;;;17.76;36.80;100075.31;5324081;26;44662;-80
2024/04/26 10:59:23;;;;;;;;;17.75;13.75;;;;;17.74;37.15;100092.72;5322160;26;44038;-73
2024/04/26 11:01:56;;;;;;;;;13.50;12.00;;;;;17.72;37.06;100090.25;5294928;26;43959;-80
2024/04/26 11:04:22;;;;;;;;;13.50;12.50;;;;;17.66;36.92;100082.41;5326298;26;44053;-75
2024/04/26 11:06:49;;;;;;;;;19.75;13.00;;;;;17.61;37.34;100085.84;5326668;26;46099;-75
2024/04/26 11:09:17;;;;;;;;;10.50;10.00;;;;;17.57;37.11;100088.22;5280754;26;43703;-73